createdAt,value
2017-12-22T00:00:03.848Z,0
2017-12-22T00:01:13.567Z,0
2017-12-22T00:02:23.556Z,0
2017-12-22T00:03:33.535Z,0
2017-12-22T00:04:43.513Z,0
2017-12-22T00:05:53.499Z,0
2017-12-22T00:07:03.481Z,0
2017-12-22T00:08:13.464Z,0
2017-12-22T00:09:23.441Z,0
2017-12-22T00:10:33.420Z,0
2017-12-22T00:11:43.407Z,0
2017-12-22T00:12:53.391Z,0
2017-12-22T00:14:03.412Z,0
2017-12-22T00:15:13.126Z,0
2017-12-22T00:16:23.108Z,0
2017-12-22T00:17:33.086Z,0
2017-12-22T00:18:43.088Z,0
2017-12-22T00:19:52.803Z,0
2017-12-22T00:21:02.781Z,0
2017-12-22T00:22:12.493Z,0
2017-12-22T00:23:22.473Z,0
2017-12-22T00:24:32.456Z,0
2017-12-22T00:25:42.176Z,0
2017-12-22T00:26:52.157Z,0
2017-12-22T00:28:02.139Z,0
2017-12-22T00:29:12.126Z,0
2017-12-22T00:30:21.840Z,0
2017-12-22T00:31:31.823Z,0
2017-12-22T00:32:41.919Z,0
2017-12-22T00:33:51.985Z,0
2017-12-22T00:35:01.708Z,0
2017-12-22T00:36:11.427Z,0
2017-12-22T00:37:21.464Z,0
2017-12-22T00:38:31.181Z,0
2017-12-22T00:39:41.161Z,0
2017-12-22T00:40:51.138Z,0
2017-12-22T00:42:01.121Z,0
2017-12-22T00:43:11.109Z,0
2017-12-22T00:44:20.827Z,0
2017-12-22T00:45:30.542Z,0
2017-12-22T00:46:40.525Z,0
2017-12-22T00:47:50.507Z,0
2017-12-22T00:49:00.497Z,0
2017-12-22T00:50:10.268Z,0
2017-12-22T00:51:20.300Z,0
2017-12-22T00:52:30.018Z,0
2017-12-22T00:53:39.732Z,0
2017-12-22T00:54:49.713Z,0
2017-12-22T00:55:59.702Z,0
2017-12-22T00:57:09.683Z,0
2017-12-22T00:58:19.662Z,0
2017-12-22T00:59:29.647Z,0
2017-12-22T01:00:39.362Z,0
2017-12-22T01:01:49.345Z,0
2017-12-22T01:02:59.069Z,0
2017-12-22T01:04:09.052Z,0
2017-12-22T01:05:19.036Z,0
2017-12-22T01:06:28.792Z,0
2017-12-22T01:07:38.779Z,0
2017-12-22T01:08:48.759Z,0
2017-12-22T01:09:58.738Z,0
2017-12-22T01:11:08.719Z,0
2017-12-22T01:12:18.173Z,0
2017-12-22T01:13:27.891Z,0
2017-12-22T01:14:37.606Z,0
2017-12-22T01:15:47.584Z,0
2017-12-22T01:16:57.299Z,0
2017-12-22T01:18:07.278Z,0
2017-12-22T01:19:19.003Z,0
2017-12-22T01:20:28.981Z,0
2017-12-22T01:21:38.965Z,0
2017-12-22T01:22:48.945Z,0
2017-12-22T01:23:58.924Z,0
2017-12-22T01:25:08.919Z,0
2017-12-22T01:26:18.901Z,0
2017-12-22T01:27:28.611Z,0
2017-12-22T01:28:38.597Z,0
2017-12-22T01:29:48.584Z,0
2017-12-22T01:30:58.570Z,0
2017-12-22T01:32:08.293Z,0
2017-12-22T01:33:18.271Z,0
2017-12-22T01:34:28.251Z,0
2017-12-22T01:35:37.696Z,0
2017-12-22T01:36:47.408Z,0
2017-12-22T01:37:57.126Z,0
2017-12-22T01:39:07.103Z,0
2017-12-22T01:40:17.084Z,0
2017-12-22T01:41:26.837Z,0
2017-12-22T01:42:36.828Z,0
2017-12-22T01:43:46.542Z,0
2017-12-22T01:44:56.531Z,0
2017-12-22T01:46:06.511Z,0
2017-12-22T01:47:16.225Z,0
2017-12-22T01:48:26.204Z,0
2017-12-22T01:49:36.185Z,0
2017-12-22T01:50:46.166Z,0
2017-12-22T01:51:56.154Z,0
2017-12-22T01:53:06.131Z,0
2017-12-22T01:54:16.111Z,0
2017-12-22T01:55:26.096Z,0
2017-12-22T01:56:35.871Z,0
2017-12-22T01:57:45.865Z,0
2017-12-22T01:58:55.849Z,0
2017-12-22T02:00:05.576Z,0
2017-12-22T02:01:15.297Z,0
2017-12-22T02:02:25.282Z,0
2017-12-22T02:03:34.995Z,0
2017-12-22T02:04:44.986Z,0
2017-12-22T02:05:54.974Z,0
2017-12-22T02:07:04.962Z,0
2017-12-22T02:08:14.951Z,0
2017-12-22T02:09:24.939Z,0
2017-12-22T02:10:34.922Z,0
2017-12-22T02:11:44.902Z,0
2017-12-22T02:12:54.885Z,0
2017-12-22T02:14:04.867Z,0
2017-12-22T02:15:14.854Z,0
2017-12-22T02:16:24.570Z,0
2017-12-22T02:17:34.593Z,0
2017-12-22T02:18:44.577Z,0
2017-12-22T02:19:54.026Z,0
2017-12-22T02:21:03.745Z,0
2017-12-22T02:22:13.724Z,0
2017-12-22T02:23:23.440Z,0
2017-12-22T02:24:33.421Z,0
2017-12-22T02:25:43.402Z,0
2017-12-22T02:26:53.382Z,0
2017-12-22T02:28:03.363Z,0
2017-12-22T02:29:13.353Z,0
2017-12-22T02:30:23.337Z,0
2017-12-22T02:31:33.326Z,0
2017-12-22T02:32:43.310Z,0
2017-12-22T02:33:53.294Z,0
2017-12-22T02:35:03.293Z,0
2017-12-22T02:36:13.013Z,0
2017-12-22T02:37:23.006Z,0
2017-12-22T02:38:32.983Z,0
2017-12-22T02:39:42.700Z,0
2017-12-22T02:40:52.680Z,0
2017-12-22T02:42:02.678Z,0
2017-12-22T02:43:12.672Z,0
2017-12-22T02:44:22.661Z,0
2017-12-22T02:45:32.638Z,0
2017-12-22T02:46:42.354Z,0
2017-12-22T02:47:52.343Z,0
2017-12-22T02:49:02.056Z,0
2017-12-22T02:50:11.775Z,0
2017-12-22T02:51:21.767Z,0
2017-12-22T02:52:31.494Z,0
2017-12-22T02:53:41.485Z,0
2017-12-22T02:54:51.474Z,0
2017-12-22T02:56:01.467Z,0
2017-12-22T02:57:11.457Z,0
2017-12-22T02:58:21.439Z,0
2017-12-22T02:59:31.426Z,0
2017-12-22T03:00:41.407Z,0
2017-12-22T03:01:51.418Z,0
2017-12-22T03:03:01.131Z,0
2017-12-22T03:04:10.847Z,0
2017-12-22T03:05:20.564Z,0
2017-12-22T03:06:30.544Z,0
2017-12-22T03:07:40.533Z,0
2017-12-22T03:08:50.517Z,0
2017-12-22T03:10:00.501Z,0
2017-12-22T03:11:10.486Z,0
2017-12-22T03:12:20.476Z,0
2017-12-22T03:13:30.475Z,0
2017-12-22T03:14:40.474Z,0
2017-12-22T03:15:50.458Z,0
2017-12-22T03:17:00.442Z,0
2017-12-22T03:18:09.896Z,0
2017-12-22T03:19:19.346Z,0
2017-12-22T03:20:29.341Z,0
2017-12-22T03:21:39.381Z,0
2017-12-22T03:22:49.355Z,0
2017-12-22T03:23:59.350Z,0
2017-12-22T03:25:09.328Z,0
2017-12-22T03:26:19.304Z,0
2017-12-22T03:27:29.019Z,0
2017-12-22T03:28:39.006Z,0
2017-12-22T03:29:48.986Z,0
2017-12-22T03:30:58.974Z,0
2017-12-22T03:32:08.697Z,0
2017-12-22T03:33:18.413Z,0
2017-12-22T03:34:28.130Z,0
2017-12-22T03:35:38.133Z,0
2017-12-22T03:36:47.918Z,0
2017-12-22T03:37:57.900Z,0
2017-12-22T03:39:07.889Z,0
2017-12-22T03:40:17.873Z,0
2017-12-22T03:41:27.851Z,0
2017-12-22T03:42:37.840Z,0
2017-12-22T03:43:47.552Z,0
2017-12-22T03:44:57.538Z,0
2017-12-22T03:46:07.264Z,0
2017-12-22T03:47:16.976Z,0
2017-12-22T03:48:26.957Z,0
2017-12-22T03:49:36.938Z,0
2017-12-22T03:50:46.657Z,0
2017-12-22T03:51:56.658Z,0
2017-12-22T03:53:06.367Z,0
2017-12-22T03:54:16.089Z,0
2017-12-22T03:55:25.804Z,0
2017-12-22T03:56:35.795Z,0
2017-12-22T03:57:45.779Z,0
2017-12-22T03:58:55.821Z,0
2017-12-22T04:00:05.268Z,0
2017-12-22T04:03:47.286Z,0
2017-12-22T04:04:57.003Z,0
2017-12-22T04:06:06.998Z,0
2017-12-22T04:07:16.500Z,0
2017-12-22T04:08:26.477Z,0
2017-12-22T04:09:36.454Z,0
2017-12-22T04:10:46.434Z,0
2017-12-22T04:11:56.413Z,0
2017-12-22T04:13:06.389Z,0
2017-12-22T04:14:16.380Z,0
2017-12-22T04:15:26.369Z,0
2017-12-22T04:16:36.414Z,0
2017-12-22T04:17:46.400Z,0
2017-12-22T04:18:56.377Z,0
2017-12-22T04:20:06.090Z,0
2017-12-22T04:21:15.816Z,0
2017-12-22T04:22:25.809Z,0
2017-12-22T04:23:35.792Z,0
2017-12-22T04:24:45.511Z,0
2017-12-22T04:25:55.508Z,0
2017-12-22T04:27:05.491Z,0
2017-12-22T04:28:15.217Z,0
2017-12-22T04:29:24.932Z,0
2017-12-22T04:30:34.920Z,0
2017-12-22T04:31:44.903Z,0
2017-12-22T04:32:54.885Z,0
2017-12-22T04:34:04.873Z,0
2017-12-22T04:35:14.595Z,0
2017-12-22T04:36:24.583Z,0
2017-12-22T04:37:34.562Z,0
2017-12-22T04:38:44.542Z,0
2017-12-22T04:39:54.527Z,0
2017-12-22T04:41:04.510Z,0
2017-12-22T04:42:14.487Z,0
2017-12-22T04:43:24.206Z,0
2017-12-22T04:44:34.191Z,0
2017-12-22T04:45:44.172Z,0
2017-12-22T04:46:54.149Z,0
2017-12-22T04:48:04.130Z,0
2017-12-22T04:49:13.843Z,0
2017-12-22T04:50:23.556Z,0
2017-12-22T04:51:33.536Z,0
2017-12-22T04:52:43.254Z,0
2017-12-22T04:53:53.233Z,0
2017-12-22T04:55:03.218Z,0
2017-12-22T04:56:13.204Z,0
2017-12-22T04:57:22.919Z,0
2017-12-22T04:58:32.917Z,0
2017-12-22T04:59:42.897Z,0
2017-12-22T05:00:52.872Z,0
2017-12-22T05:02:02.585Z,0
2017-12-22T05:03:12.570Z,0
2017-12-22T05:04:22.561Z,0
2017-12-22T05:05:32.543Z,0
2017-12-22T05:06:42.262Z,0
2017-12-22T05:07:52.242Z,0
2017-12-22T05:09:02.236Z,0
2017-12-22T05:10:11.956Z,0
2017-12-22T05:11:21.934Z,0
2017-12-22T05:12:31.920Z,0
2017-12-22T05:13:41.905Z,0
2017-12-22T05:14:51.900Z,0
2017-12-22T05:16:01.885Z,0
2017-12-22T05:17:11.865Z,0
2017-12-22T05:18:21.842Z,0
2017-12-22T05:19:31.555Z,0
2017-12-22T05:20:41.538Z,0
2017-12-22T05:21:50.988Z,0
2017-12-22T05:23:00.967Z,0
2017-12-22T05:24:10.951Z,0
2017-12-22T05:25:20.929Z,0
2017-12-22T05:26:30.908Z,0
2017-12-22T05:27:40.887Z,0
2017-12-22T05:28:50.594Z,0
2017-12-22T05:30:00.574Z,0
2017-12-22T05:31:10.369Z,0
2017-12-22T05:32:20.354Z,0
2017-12-22T05:33:30.334Z,0
2017-12-22T05:34:40.316Z,0
2017-12-22T05:35:50.300Z,0
2017-12-22T05:37:00.277Z,0
2017-12-22T05:38:09.991Z,0
2017-12-22T05:39:19.982Z,0
2017-12-22T05:40:30.034Z,0
2017-12-22T05:41:40.019Z,0
2017-12-22T05:42:50.049Z,0
2017-12-22T05:44:00.047Z,0
2017-12-22T05:45:09.767Z,0
2017-12-22T05:46:19.745Z,0
2017-12-22T05:47:29.458Z,0
2017-12-22T05:48:39.739Z,0
2017-12-22T05:49:49.714Z,0
2017-12-22T05:50:59.428Z,0
2017-12-22T05:52:09.142Z,0
2017-12-22T05:53:19.130Z,0
2017-12-22T05:54:29.103Z,0
2017-12-22T05:55:39.085Z,0
2017-12-22T05:56:49.068Z,0
2017-12-22T05:57:58.781Z,0
2017-12-22T05:59:08.770Z,0
2017-12-22T06:00:18.756Z,0
2017-12-22T06:01:28.735Z,0
2017-12-22T06:02:38.715Z,0
2017-12-22T06:03:48.457Z,0
2017-12-22T06:04:58.432Z,0
2017-12-22T06:06:08.423Z,0
2017-12-22T06:07:18.401Z,0
2017-12-22T06:08:28.121Z,0
2017-12-22T06:09:38.103Z,0
2017-12-22T06:10:48.082Z,0
2017-12-22T06:11:58.057Z,0
2017-12-22T06:13:08.034Z,0
2017-12-22T06:14:18.007Z,0
2017-12-22T06:15:27.982Z,0
2017-12-22T06:16:37.699Z,0
2017-12-22T06:17:47.676Z,0
2017-12-22T06:18:57.386Z,0
2017-12-22T06:20:07.368Z,0
2017-12-22T06:21:17.086Z,0
2017-12-22T06:22:27.065Z,0
2017-12-22T06:23:37.042Z,0
2017-12-22T06:24:47.021Z,0
2017-12-22T06:25:57.000Z,0
2017-12-22T06:27:06.719Z,0
2017-12-22T06:28:16.465Z,0
2017-12-22T06:29:26.476Z,0
2017-12-22T06:30:36.459Z,0
2017-12-22T06:31:46.486Z,0
2017-12-22T06:32:56.465Z,0
2017-12-22T06:34:06.440Z,0
2017-12-22T06:35:16.419Z,0
2017-12-22T06:36:26.132Z,0
2017-12-22T06:37:36.110Z,0
2017-12-22T06:38:46.097Z,0
2017-12-22T06:39:56.075Z,0
2017-12-22T06:41:06.061Z,0
2017-12-22T06:42:16.041Z,0
2017-12-22T06:43:26.021Z,0
2017-12-22T06:44:35.742Z,0
2017-12-22T06:45:45.731Z,0
2017-12-22T06:46:55.449Z,0
2017-12-22T06:48:05.433Z,0
2017-12-22T06:49:15.420Z,0
2017-12-22T06:50:25.198Z,0
2017-12-22T06:51:35.177Z,0
2017-12-22T06:52:45.155Z,0
2017-12-22T06:53:55.184Z,0
2017-12-22T06:55:05.176Z,0
2017-12-22T06:56:14.622Z,0
2017-12-22T06:57:24.067Z,0
2017-12-22T06:58:34.042Z,0
2017-12-22T06:59:44.022Z,0
2017-12-22T07:00:53.998Z,0
2017-12-22T07:02:03.982Z,0
2017-12-22T07:03:13.693Z,0
2017-12-22T07:04:23.672Z,0
2017-12-22T07:05:33.387Z,0
2017-12-22T07:06:43.381Z,0
2017-12-22T07:07:53.368Z,0
2017-12-22T07:09:03.348Z,0
2017-12-22T07:10:13.329Z,0
2017-12-22T07:11:23.306Z,0
2017-12-22T07:12:33.284Z,0
2017-12-22T07:13:42.998Z,0
2017-12-22T07:14:52.977Z,0
2017-12-22T07:16:02.955Z,0
2017-12-22T07:17:12.940Z,0
2017-12-22T07:18:22.934Z,0
2017-12-22T07:19:32.910Z,0
2017-12-22T07:20:42.892Z,0
2017-12-22T07:21:52.869Z,0
2017-12-22T07:23:02.846Z,0
2017-12-22T07:24:12.830Z,0
2017-12-22T07:25:22.815Z,0
2017-12-22T07:26:32.810Z,0
2017-12-22T07:27:42.528Z,4
2017-12-22T07:28:52.503Z,4
2017-12-22T07:30:02.583Z,0
2017-12-22T07:31:12.292Z,0
2017-12-22T07:32:22.271Z,4
2017-12-22T07:33:31.993Z,4
2017-12-22T07:34:41.975Z,0
2017-12-22T07:35:51.954Z,4
2017-12-22T07:37:01.939Z,4
2017-12-22T07:38:11.924Z,4
2017-12-22T07:39:21.902Z,8
2017-12-22T07:40:31.878Z,8
2017-12-22T07:41:41.859Z,8
2017-12-22T07:42:51.845Z,8
2017-12-22T07:44:01.824Z,8
2017-12-22T07:45:11.547Z,12
2017-12-22T07:46:21.527Z,16
2017-12-22T07:47:31.502Z,12
2017-12-22T07:48:41.480Z,16
2017-12-22T07:49:51.192Z,20
2017-12-22T07:51:01.175Z,20
2017-12-22T07:52:11.155Z,24
2017-12-22T07:53:20.876Z,28
2017-12-22T07:54:30.859Z,32
2017-12-22T07:55:40.847Z,32
2017-12-22T07:56:50.823Z,36
2017-12-22T07:58:00.806Z,44
2017-12-22T07:59:10.784Z,48
2017-12-22T08:00:20.765Z,52
2017-12-22T08:01:30.501Z,56
2017-12-22T08:02:40.492Z,64
2017-12-22T08:03:50.470Z,68
2017-12-22T08:05:00.449Z,80
2017-12-22T08:06:10.433Z,88
2017-12-22T08:07:20.158Z,92
2017-12-22T08:08:31.879Z,100
2017-12-22T08:09:41.869Z,112
2017-12-22T08:10:51.868Z,120
2017-12-22T08:12:01.848Z,132
2017-12-22T08:13:11.572Z,148
2017-12-22T08:14:21.551Z,156
2017-12-22T08:15:31.528Z,168
2017-12-22T08:16:41.511Z,180
2017-12-22T08:17:51.225Z,196
2017-12-22T08:19:01.206Z,212
2017-12-22T08:20:11.191Z,228
2017-12-22T08:21:21.171Z,240
2017-12-22T08:22:31.153Z,260
2017-12-22T08:23:40.867Z,272
2017-12-22T08:24:50.847Z,292
2017-12-22T08:26:00.830Z,304
2017-12-22T08:27:10.808Z,316
2017-12-22T08:28:20.792Z,332
2017-12-22T08:29:30.775Z,344
2017-12-22T08:30:40.753Z,352
2017-12-22T08:31:50.730Z,372
2017-12-22T08:33:00.715Z,388
2017-12-22T08:34:10.700Z,404
2017-12-22T08:35:20.678Z,412
2017-12-22T08:36:30.654Z,440
2017-12-22T08:37:40.645Z,456
2017-12-22T08:38:50.633Z,480
2017-12-22T08:40:00.351Z,500
2017-12-22T08:41:10.344Z,524
2017-12-22T08:42:20.329Z,536
2017-12-22T08:43:30.375Z,552
2017-12-22T08:44:40.356Z,572
2017-12-22T08:45:50.350Z,592
2017-12-22T08:47:00.327Z,608
2017-12-22T08:48:09.776Z,632
2017-12-22T08:49:19.547Z,644
2017-12-22T08:50:29.548Z,660
2017-12-22T08:51:39.308Z,668
2017-12-22T08:52:49.293Z,672
2017-12-22T08:53:59.274Z,676
2017-12-22T08:55:09.102Z,680
2017-12-22T08:56:19.088Z,684
2017-12-22T08:57:29.066Z,692
2017-12-22T08:58:39.048Z,712
2017-12-22T08:59:48.760Z,740
2017-12-22T09:00:59.244Z,756
2017-12-22T09:02:08.960Z,780
2017-12-22T09:03:18.939Z,796
2017-12-22T09:04:28.922Z,804
2017-12-22T09:05:38.903Z,808
2017-12-22T09:06:48.879Z,824
2017-12-22T09:07:58.873Z,844
2017-12-22T09:09:08.861Z,876
2017-12-22T09:10:18.845Z,888
2017-12-22T09:11:28.825Z,880
2017-12-22T09:12:38.808Z,880
2017-12-22T09:13:48.787Z,896
2017-12-22T09:14:58.769Z,924
2017-12-22T09:16:08.496Z,952
2017-12-22T09:17:18.480Z,984
2017-12-22T09:18:28.458Z,1016
2017-12-22T09:19:38.171Z,1052
2017-12-22T09:20:47.883Z,1084
2017-12-22T09:21:57.866Z,1088
2017-12-22T09:23:07.903Z,1148
2017-12-22T09:24:17.881Z,1212
2017-12-22T09:25:27.592Z,1260
2017-12-22T09:26:37.575Z,1316
2017-12-22T09:27:47.351Z,1376
2017-12-22T09:28:57.379Z,1436
2017-12-22T09:30:09.465Z,1512
2017-12-22T09:31:18.970Z,1584
2017-12-22T09:32:28.947Z,1640
2017-12-22T09:33:38.956Z,1708
2017-12-22T09:34:48.688Z,1816
2017-12-22T09:35:58.801Z,1872
2017-12-22T09:37:08.517Z,1864
2017-12-22T09:38:18.227Z,1932
2017-12-22T09:39:28.204Z,2032
2017-12-22T09:40:37.694Z,2112
2017-12-22T09:41:47.410Z,2152
2017-12-22T09:42:57.396Z,2184
2017-12-22T09:44:07.382Z,2216
2017-12-22T09:45:17.097Z,2236
2017-12-22T09:46:27.161Z,2248
2017-12-22T09:47:37.143Z,2268
2017-12-22T09:48:47.124Z,2264
2017-12-22T09:49:56.840Z,2244
2017-12-22T09:51:06.982Z,2200
2017-12-22T09:52:16.433Z,2212
2017-12-22T09:53:26.466Z,2244
2017-12-22T09:54:36.461Z,2212
2017-12-22T09:55:46.440Z,2212
2017-12-22T09:56:56.155Z,2232
2017-12-22T09:58:05.872Z,2280
2017-12-22T09:59:15.592Z,2320
2017-12-22T10:00:25.581Z,2324
2017-12-22T10:01:35.297Z,2300
2017-12-22T10:02:45.029Z,2296
2017-12-22T10:03:55.012Z,2288
2017-12-22T10:05:04.995Z,2324
2017-12-22T10:06:14.715Z,2404
2017-12-22T10:07:24.161Z,2452
2017-12-22T10:08:34.142Z,2468
2017-12-22T10:09:43.609Z,2500
2017-12-22T10:10:53.621Z,2576
2017-12-22T10:12:03.610Z,2640
2017-12-22T10:13:13.588Z,2696
2017-12-22T10:14:23.568Z,2648
2017-12-22T10:15:33.560Z,2688
2017-12-22T10:16:43.581Z,2732
2017-12-22T10:17:53.559Z,2740
2017-12-22T10:19:03.551Z,2784
2017-12-22T10:20:13.299Z,2832
2017-12-22T10:21:23.277Z,2892
2017-12-22T10:22:33.003Z,2924
2017-12-22T10:23:42.983Z,2904
2017-12-22T10:24:52.961Z,2912
2017-12-22T10:26:02.679Z,2820
2017-12-22T10:27:12.658Z,2648
2017-12-22T10:28:22.645Z,2616
2017-12-22T10:29:32.362Z,2632
2017-12-22T10:30:42.338Z,2632
2017-12-22T10:31:52.323Z,2768
2017-12-22T10:33:02.363Z,2992
2017-12-22T10:34:12.395Z,3224
2017-12-22T10:35:22.375Z,3352
2017-12-22T10:36:32.087Z,3388
2017-12-22T10:37:42.071Z,3372
2017-12-22T10:38:52.049Z,3272
2017-12-22T10:40:02.029Z,3096
2017-12-22T10:41:12.025Z,2924
2017-12-22T10:42:21.742Z,2968
2017-12-22T10:43:31.767Z,2888
2017-12-22T10:44:41.756Z,2744
2017-12-22T10:45:52.089Z,2696
2017-12-22T10:47:02.126Z,2728
2017-12-22T10:48:11.848Z,2804
2017-12-22T10:49:21.829Z,2896
2017-12-22T10:50:31.546Z,3008
2017-12-22T10:51:41.532Z,3012
2017-12-22T10:52:50.977Z,3000
2017-12-22T10:54:00.693Z,3032
2017-12-22T10:55:10.680Z,3040
2017-12-22T10:56:20.661Z,2996
2017-12-22T10:57:30.643Z,3060
2017-12-22T10:58:40.624Z,3160
2017-12-22T10:59:50.344Z,3280
2017-12-22T11:01:00.325Z,3588
2017-12-22T11:02:10.310Z,3392
2017-12-22T11:03:20.297Z,3288
2017-12-22T11:04:30.273Z,3340
2017-12-22T11:05:40.254Z,3632
2017-12-22T11:06:50.235Z,3668
2017-12-22T11:08:00.222Z,3628
2017-12-22T11:09:10.852Z,3920
2017-12-22T11:10:20.830Z,4068
2017-12-22T11:11:30.540Z,4220
2017-12-22T11:12:40.523Z,4124
2017-12-22T11:13:50.502Z,4260
2017-12-22T11:15:00.488Z,4368
2017-12-22T11:16:10.202Z,4212
2017-12-22T11:17:19.935Z,4180
2017-12-22T11:18:29.932Z,3908
2017-12-22T11:19:39.720Z,3924
2017-12-22T11:20:49.709Z,4016
2017-12-22T11:21:59.693Z,4120
2017-12-22T11:23:09.683Z,4292
2017-12-22T11:24:19.667Z,4732
2017-12-22T11:25:29.384Z,6080
2017-12-22T11:26:39.371Z,6968
2017-12-22T11:27:49.091Z,8216
2017-12-22T11:28:59.116Z,8796
2017-12-22T11:30:09.096Z,8492
2017-12-22T11:31:18.820Z,7688
2017-12-22T11:32:28.541Z,7360
2017-12-22T11:33:38.265Z,7284
2017-12-22T11:34:48.259Z,7512
2017-12-22T11:35:57.974Z,8788
2017-12-22T11:37:07.964Z,9172
2017-12-22T11:38:17.947Z,9192
2017-12-22T11:39:27.953Z,9748
2017-12-22T11:40:37.672Z,9944
2017-12-22T11:41:47.658Z,8176
2017-12-22T11:42:57.640Z,8012
2017-12-22T11:44:07.681Z,8608
2017-12-22T11:45:17.397Z,9296
2017-12-22T11:46:27.118Z,10112
2017-12-22T11:47:37.098Z,9680
2017-12-22T11:48:47.088Z,8260
2017-12-22T11:49:56.536Z,7888
2017-12-22T11:51:06.517Z,8504
2017-12-22T11:52:16.246Z,7472
2017-12-22T11:53:26.231Z,6876
2017-12-22T11:54:36.216Z,6044
2017-12-22T11:55:46.217Z,5496
2017-12-22T11:56:56.248Z,4672
2017-12-22T11:58:06.294Z,4400
2017-12-22T11:59:16.278Z,5260
2017-12-22T12:00:26.261Z,5760
2017-12-22T12:01:35.988Z,5980
2017-12-22T12:02:45.976Z,5928
2017-12-22T12:03:55.703Z,5872
2017-12-22T12:05:05.691Z,5968
2017-12-22T12:06:15.406Z,5840
2017-12-22T12:07:25.130Z,6836
2017-12-22T12:08:35.128Z,6548
2017-12-22T12:09:45.114Z,6104
2017-12-22T12:10:55.100Z,5568
2017-12-22T12:12:05.085Z,5540
2017-12-22T12:13:15.089Z,5744
2017-12-22T12:14:24.818Z,6220
2017-12-22T12:15:34.802Z,6508
2017-12-22T12:16:44.909Z,6500
2017-12-22T12:17:54.893Z,6464
2017-12-22T12:19:04.888Z,6396
2017-12-22T12:20:14.890Z,6300
2017-12-22T12:21:24.618Z,6336
2017-12-22T12:22:34.415Z,6260
2017-12-22T12:23:44.400Z,6224
2017-12-22T12:24:55.336Z,6188
2017-12-22T12:26:05.055Z,6136
2017-12-22T12:27:15.046Z,5800
2017-12-22T12:28:25.145Z,5956
2017-12-22T12:29:35.168Z,5560
2017-12-22T12:30:46.949Z,4908
2017-12-22T12:31:56.933Z,4216
2017-12-22T12:33:06.653Z,3196
2017-12-22T12:34:16.376Z,2940
2017-12-22T12:35:26.362Z,2768
2017-12-22T12:36:36.085Z,2768
2017-12-22T12:37:46.081Z,3028
2017-12-22T12:38:55.804Z,4336
2017-12-22T12:40:05.531Z,5248
2017-12-22T12:41:15.537Z,3280
2017-12-22T12:42:25.256Z,2708
2017-12-22T12:43:35.251Z,2760
2017-12-22T12:44:44.970Z,2820
2017-12-22T12:45:54.970Z,2868
2017-12-22T12:47:04.953Z,3188
2017-12-22T12:48:14.677Z,3472
2017-12-22T12:49:24.679Z,3656
2017-12-22T12:50:34.708Z,2844
2017-12-22T12:51:44.701Z,2264
2017-12-22T12:52:54.684Z,2136
2017-12-22T12:54:04.452Z,2080
2017-12-22T12:55:14.183Z,1948
2017-12-22T12:56:24.177Z,1900
2017-12-22T12:57:34.166Z,1852
2017-12-22T12:58:44.196Z,1828
2017-12-22T12:59:53.919Z,1800
2017-12-22T13:01:03.899Z,1792
2017-12-22T13:02:13.351Z,1740
2017-12-22T13:03:23.066Z,1692
2017-12-22T13:04:33.055Z,1656
2017-12-22T13:05:43.034Z,1628
2017-12-22T13:06:53.012Z,1604
2017-12-22T13:08:02.994Z,1620
2017-12-22T13:09:12.711Z,1708
2017-12-22T13:10:22.165Z,1588
2017-12-22T13:11:32.145Z,1544
2017-12-22T13:12:41.595Z,1520
2017-12-22T13:13:51.309Z,1480
2017-12-22T13:15:01.287Z,1448
2017-12-22T13:16:11.052Z,1416
2017-12-22T13:17:21.041Z,1384
2017-12-22T13:18:31.022Z,1360
2017-12-22T13:19:40.998Z,1336
2017-12-22T13:20:50.716Z,1308
2017-12-22T13:22:00.700Z,1280
2017-12-22T13:23:09.883Z,1256
2017-12-22T13:24:19.332Z,1220
2017-12-22T13:25:29.044Z,1180
2017-12-22T13:26:39.028Z,1148
2017-12-22T13:27:49.014Z,1112
2017-12-22T13:28:58.735Z,1080
2017-12-22T13:30:08.720Z,1044
2017-12-22T13:31:18.700Z,1004
2017-12-22T13:32:28.421Z,964
2017-12-22T13:33:38.143Z,972
2017-12-22T13:34:47.853Z,864
2017-12-22T13:35:57.838Z,784
2017-12-22T13:37:07.819Z,752
2017-12-22T13:38:17.830Z,712
2017-12-22T13:39:27.281Z,660
2017-12-22T13:40:37.266Z,620
2017-12-22T13:41:46.982Z,620
2017-12-22T13:42:56.694Z,564
2017-12-22T13:44:06.683Z,536
2017-12-22T13:45:16.667Z,520
2017-12-22T13:46:26.376Z,488
2017-12-22T13:47:36.361Z,468
2017-12-22T13:48:46.352Z,448
2017-12-22T13:49:56.333Z,428
2017-12-22T13:51:06.314Z,416
2017-12-22T13:52:16.299Z,392
2017-12-22T13:53:26.281Z,368
2017-12-22T13:54:36.265Z,348
2017-12-22T13:55:46.246Z,328
2017-12-22T13:56:55.956Z,308
2017-12-22T13:58:05.950Z,296
2017-12-22T13:59:15.713Z,276
2017-12-22T14:00:25.737Z,260
2017-12-22T14:01:35.183Z,244
2017-12-22T14:02:45.172Z,228
2017-12-22T14:03:55.161Z,208
2017-12-22T14:05:05.143Z,196
2017-12-22T14:06:14.592Z,188
2017-12-22T14:07:24.570Z,172
2017-12-22T14:08:34.283Z,164
2017-12-22T14:09:44.258Z,156
2017-12-22T14:10:53.976Z,140
2017-12-22T14:12:03.959Z,132
2017-12-22T14:13:13.682Z,128
2017-12-22T14:14:23.720Z,116
2017-12-22T14:15:33.435Z,112
2017-12-22T14:16:43.147Z,100
2017-12-22T14:17:53.128Z,92
2017-12-22T14:19:03.114Z,88
2017-12-22T14:20:12.562Z,80
2017-12-22T14:21:22.278Z,76
2017-12-22T14:22:32.261Z,68
2017-12-22T14:23:42.240Z,64
2017-12-22T14:24:52.225Z,60
2017-12-22T14:26:02.205Z,56
2017-12-22T14:27:12.183Z,52
2017-12-22T14:28:21.896Z,48
2017-12-22T14:29:31.342Z,44
2017-12-22T14:30:41.059Z,40
2017-12-22T14:31:51.043Z,36
2017-12-22T14:33:01.023Z,32
2017-12-22T14:34:11.029Z,28
2017-12-22T14:35:21.006Z,24
2017-12-22T14:36:30.989Z,20
2017-12-22T14:37:40.700Z,20
2017-12-22T14:38:50.678Z,16
2017-12-22T14:40:00.658Z,16
2017-12-22T14:41:10.385Z,12
2017-12-22T14:42:20.368Z,12
2017-12-22T14:43:30.346Z,12
2017-12-22T14:44:40.394Z,8
2017-12-22T14:45:50.373Z,8
2017-12-22T14:47:00.087Z,8
2017-12-22T14:48:10.067Z,4
2017-12-22T14:49:20.057Z,8
2017-12-22T14:50:30.044Z,4
2017-12-22T14:51:40.026Z,4
2017-12-22T14:52:49.508Z,0
2017-12-22T14:53:59.486Z,4
2017-12-22T14:55:09.523Z,4
2017-12-22T14:56:19.509Z,4
2017-12-22T14:57:29.487Z,4
2017-12-22T14:58:39.199Z,0
2017-12-22T14:59:49.207Z,0
2017-12-22T15:00:59.186Z,0
2017-12-22T15:02:09.170Z,0
2017-12-22T15:03:19.150Z,0
2017-12-22T15:04:29.131Z,0
2017-12-22T15:05:39.109Z,0
2017-12-22T15:06:49.096Z,0
2017-12-22T15:07:59.081Z,0
2017-12-22T15:09:09.063Z,0
2017-12-22T15:10:19.074Z,0
2017-12-22T15:11:29.056Z,0
2017-12-22T15:12:38.768Z,0
2017-12-22T15:13:48.482Z,0
2017-12-22T15:14:58.465Z,0
2017-12-22T15:16:08.444Z,0
2017-12-22T15:17:18.212Z,0
2017-12-22T15:18:27.922Z,0
2017-12-22T15:19:37.900Z,0
2017-12-22T15:20:47.885Z,0
2017-12-22T15:21:57.869Z,0
2017-12-22T15:23:07.590Z,0
2017-12-22T15:24:17.568Z,0
2017-12-22T15:25:27.646Z,0
2017-12-22T15:26:37.624Z,0
2017-12-22T15:27:47.605Z,0
2017-12-22T15:28:57.061Z,0
2017-12-22T15:30:06.791Z,0
2017-12-22T15:31:16.235Z,0
2017-12-22T15:32:26.215Z,0
2017-12-22T15:33:36.195Z,0
2017-12-22T15:34:45.914Z,0
2017-12-22T15:35:55.894Z,0
2017-12-22T15:37:06.182Z,0
2017-12-22T15:38:16.159Z,0
2017-12-22T15:39:25.874Z,0
2017-12-22T15:40:35.849Z,0
2017-12-22T15:41:45.825Z,0
2017-12-22T15:42:55.803Z,0
2017-12-22T15:44:05.840Z,0
2017-12-22T15:45:15.554Z,0
2017-12-22T15:46:25.529Z,0
2017-12-22T15:47:35.508Z,0
2017-12-22T15:48:45.218Z,0
2017-12-22T15:49:55.199Z,0
2017-12-22T15:51:05.177Z,0
2017-12-22T15:52:15.154Z,0
2017-12-22T15:53:25.141Z,0
2017-12-22T15:54:35.125Z,0
2017-12-22T15:55:45.120Z,0
2017-12-22T15:56:55.103Z,0
2017-12-22T15:58:04.817Z,0
2017-12-22T15:59:14.802Z,0
2017-12-22T16:00:24.788Z,0
2017-12-22T16:01:34.768Z,0
2017-12-22T16:02:44.747Z,0
2017-12-22T16:03:54.732Z,0
2017-12-22T16:05:04.231Z,0
2017-12-22T16:06:15.954Z,0
2017-12-22T16:07:25.937Z,0
2017-12-22T16:08:35.916Z,0
2017-12-22T16:09:45.364Z,0
2017-12-22T16:10:55.340Z,0
2017-12-22T16:12:05.332Z,0
2017-12-22T16:13:15.058Z,0
2017-12-22T16:14:25.052Z,0
2017-12-22T16:15:34.239Z,0
2017-12-22T16:16:44.218Z,0
2017-12-22T16:17:54.208Z,0
2017-12-22T16:19:04.187Z,0
2017-12-22T16:20:14.171Z,0
2017-12-22T16:21:23.882Z,0
2017-12-22T16:22:33.864Z,0
2017-12-22T16:23:43.844Z,0
2017-12-22T16:24:53.823Z,0
2017-12-22T16:26:03.804Z,0
2017-12-22T16:27:13.785Z,0
2017-12-22T16:28:23.501Z,0
2017-12-22T16:29:33.480Z,0
2017-12-22T16:30:43.458Z,0
2017-12-22T16:31:53.440Z,0
2017-12-22T16:33:03.416Z,0
2017-12-22T16:34:13.127Z,0
2017-12-22T16:35:22.851Z,0
2017-12-22T16:36:32.829Z,0
2017-12-22T16:37:42.545Z,0